Time;durP1;ratioP1;P1;durP2;ratioP2;P2;SDS_P1;SDS_P2;PMS_P1;PMS_P2;Temp;Humidity;BMP_temperature;BMP_pressure;BME280_temperature;BME280_humidity;BME280_pressure;Samples;Min_cycle;Max_cycle;Signal;HPM_P1;HPM_P2
2023/11/17 00:00:31;;;;;;;3.30;3.10;;;8.90;91.60;;;;;;5052031;28;20041;-64
2023/11/17 00:02:57;;;;;;;3.60;3.30;;;9.00;91.60;;;;;;5051444;28;20135;-63
2023/11/17 00:05:22;;;;;;;3.67;3.38;;;9.00;91.50;;;;;;5051547;28;20139;-63
2023/11/17 00:07:48;;;;;;;3.22;3.03;;;9.00;91.50;;;;;;5053236;28;20037;-63
2023/11/17 00:10:13;;;;;;;3.63;3.33;;;9.00;91.40;;;;;;5055296;28;20515;-63
2023/11/17 00:12:41;;;;;;;3.40;3.20;;;9.00;91.40;;;;;;5053922;28;20287;-63
2023/11/17 00:15:07;;;;;;;3.28;3.03;;;9.10;91.50;;;;;;5056775;28;20309;-63
2023/11/17 00:17:33;;;;;;;3.78;3.47;;;9.10;91.40;;;;;;5054617;28;20172;-64
2023/11/17 00:19:59;;;;;;;3.72;3.42;;;9.10;91.30;;;;;;5057916;28;20064;-63
2023/11/17 00:22:24;;;;;;;2.70;2.50;;;9.10;91.30;;;;;;5055142;28;20037;-63
2023/11/17 00:24:50;;;;;;;1.70;1.60;;;9.10;91.30;;;;;;5057204;28;20037;-63
2023/11/17 00:27:16;;;;;;;1.30;1.20;;;9.10;91.30;;;;;;5057195;28;20045;-63
2023/11/17 00:29:42;;;;;;;0.75;0.70;;;9.10;91.40;;;;;;5054445;28;20029;-63
2023/11/17 00:32:09;;;;;;;0.38;0.38;;;9.10;91.40;;;;;;5055031;28;20080;-64
2023/11/17 00:34:34;;;;;;;0.30;0.30;;;9.00;91.50;;;;;;5057119;28;20060;-64
2023/11/17 00:37:04;;;;;;;0.22;0.10;;;9.00;91.50;;;;;;5056026;28;20036;-64
2023/11/17 00:39:30;;;;;;;0.25;0.10;;;9.00;91.50;;;;;;5057313;28;20419;-64
2023/11/17 00:41:55;;;;;;;0.00;0.00;;;9.00;91.40;;;;;;5055865;28;20074;-63
2023/11/17 00:44:21;;;;;;;1.00;0.00;;;9.00;91.30;;;;;;5057062;28;20574;-64
2023/11/17 00:46:47;;;;;;;0.05;0.05;;;8.90;91.10;;;;;;5055458;28;20036;-64
2023/11/17 00:49:13;;;;;;;0.05;0.05;;;8.90;91.00;;;;;;5056638;28;20033;-64
2023/11/17 00:51:40;;;;;;;0.00;0.00;;;8.90;91.00;;;;;;5055995;28;20407;-64
2023/11/17 00:54:06;;;;;;;0.20;0.00;;;8.80;90.80;;;;;;5056611;28;20045;-64
2023/11/17 00:56:33;;;;;;;1.08;0.00;;;8.80;90.70;;;;;;5054214;28;20037;-64
2023/11/17 00:59:03;;;;;;;0.10;0.10;;;8.80;90.80;;;;;;5054383;28;20036;-64
2023/11/17 01:01:29;;;;;;;0.10;0.10;;;8.80;90.80;;;;;;5055136;28;20536;-64
2023/11/17 01:03:55;;;;;;;0.10;0.10;;;8.70;90.60;;;;;;5056074;28;20039;-64
2023/11/17 01:06:21;;;;;;;0.00;0.00;;;8.60;90.60;;;;;;5054873;28;20032;-63
2023/11/17 01:08:47;;;;;;;0.10;0.10;;;8.60;90.60;;;;;;5054879;28;20085;-63
2023/11/17 01:11:12;;;;;;;0.10;0.10;;;8.60;90.50;;;;;;5053886;28;20025;-64
2023/11/17 01:13:39;;;;;;;0.10;0.10;;;8.50;90.40;;;;;;5055980;28;20152;-64
2023/11/17 01:16:05;;;;;;;0.00;0.00;;;8.40;90.20;;;;;;5054253;28;20500;-64
2023/11/17 01:18:31;;;;;;;0.00;0.00;;;8.40;90.40;;;;;;5054056;28;20067;-64
2023/11/17 01:20:56;;;;;;;1.10;0.10;;;8.30;90.40;;;;;;5056132;28;20460;-64
2023/11/17 01:23:23;;;;;;;0.00;0.00;;;8.30;90.50;;;;;;5054618;28;20040;-64
2023/11/17 01:25:48;;;;;;;0.10;0.10;;;8.20;90.40;;;;;;5056768;28;20516;-64
2023/11/17 01:28:14;;;;;;;0.00;0.00;;;8.20;90.40;;;;;;5055020;28;20044;-64
2023/11/17 01:30:40;;;;;;;0.00;0.00;;;8.10;90.40;;;;;;5056649;28;20128;-64
2023/11/17 01:33:05;;;;;;;0.10;0.00;;;8.00;90.40;;;;;;5057185;28;20036;-64
2023/11/17 01:35:31;;;;;;;0.95;0.00;;;8.00;90.50;;;;;;5054279;28;20435;-64
2023/11/17 01:37:57;;;;;;;0.03;0.00;;;7.90;90.50;;;;;;5055915;28;20125;-64
2023/11/17 01:40:22;;;;;;;0.00;0.00;;;7.90;90.50;;;;;;5054459;28;20103;-64
2023/11/17 01:42:48;;;;;;;0.00;0.00;;;7.80;90.40;;;;;;5055775;28;20044;-64
2023/11/17 01:45:14;;;;;;;0.10;0.00;;;7.80;90.40;;;;;;5054540;28;20039;-64
2023/11/17 01:47:42;;;;;;;0.00;0.00;;;7.80;90.50;;;;;;5055401;28;20048;-64
2023/11/17 01:50:11;;;;;;;0.10;0.10;;;7.70;90.50;;;;;;5054803;28;20037;-64
2023/11/17 01:52:46;;;;;;;0.00;0.00;;;7.60;90.20;;;;;;5054443;28;20041;-64
2023/11/17 01:55:15;;;;;;;0.20;0.10;;;7.60;90.30;;;;;;5055384;28;20346;-64
2023/11/17 01:57:42;;;;;;;0.00;0.00;;;7.50;90.30;;;;;;5055630;28;20032;-64
2023/11/17 02:00:14;;;;;;;0.00;0.00;;;7.50;90.40;;;;;;5055421;28;20032;-64
2023/11/17 02:02:44;;;;;;;0.00;0.00;;;7.40;90.50;;;;;;5045881;28;20055;-64
2023/11/17 02:05:12;;;;;;;0.10;0.00;;;7.40;90.50;;;;;;5054263;28;20036;-64
2023/11/17 02:08:19;;;;;;;0.00;0.00;;;7.40;90.50;;;;;;5056499;28;20040;-64
2023/11/17 02:11:08;;;;;;;0.10;0.10;;;7.30;90.70;;;;;;5032534;28;20512;-64
2023/11/17 02:13:40;;;;;;;0.00;0.00;;;7.30;90.70;;;;;;5050641;28;20067;-64
2023/11/17 02:16:11;;;;;;;0.10;0.10;;;7.30;90.70;;;;;;5055020;28;20097;-64
2023/11/17 02:18:40;;;;;;;0.00;0.00;;;7.20;90.60;;;;;;5057315;28;20040;-64
2023/11/17 02:21:07;;;;;;;0.10;0.10;;;7.20;90.60;;;;;;5052147;28;20033;-64
2023/11/17 02:23:34;;;;;;;0.10;0.00;;;7.20;90.70;;;;;;5057049;28;20045;-64
2023/11/17 02:26:17;;;;;;;0.00;0.00;;;7.20;90.80;;;;;;5055093;28;20044;-64
2023/11/17 02:28:58;;;;;;;0.00;0.00;;;7.20;90.90;;;;;;5039238;28;20500;-63
2023/11/17 02:31:31;;;;;;;0.98;0.40;;;7.10;90.80;;;;;;5055548;28;20032;-64
2023/11/17 02:34:03;;;;;;;0.13;0.13;;;7.10;90.80;;;;;;5057542;28;20051;-64
2023/11/17 02:36:32;;;;;;;0.40;0.10;;;7.10;90.70;;;;;;5056110;28;20035;-64
2023/11/17 02:39:15;;;;;;;0.03;0.00;;;7.10;90.70;;;;;;5055748;28;20032;-64
2023/11/17 02:41:57;;;;;;;0.00;0.00;;;7.10;90.70;;;;;;5057043;28;20508;-64
2023/11/17 02:44:28;;;;;;;0.15;0.00;;;7.10;90.60;;;;;;5055608;28;20036;-64
2023/11/17 02:46:58;;;;;;;0.00;0.00;;;7.00;90.60;;;;;;5054501;28;20025;-64
2023/11/17 02:49:29;;;;;;;0.60;0.00;;;7.00;90.60;;;;;;5054226;28;20038;-64
2023/11/17 02:51:55;;;;;;;0.43;0.05;;;7.00;90.60;;;;;;5054803;28;20037;-64
2023/11/17 02:54:27;;;;;;;0.00;0.00;;;7.00;90.50;;;;;;5039407;28;20041;-64
2023/11/17 02:56:54;;;;;;;0.10;0.10;;;6.90;90.50;;;;;;5054878;28;20527;-64
2023/11/17 02:59:21;;;;;;;0.00;0.00;;;6.90;90.50;;;;;;5056264;28;20059;-64
2023/11/17 03:01:47;;;;;;;0.10;0.00;;;6.90;90.50;;;;;;5057008;28;20043;-64
2023/11/17 03:04:16;;;;;;;0.00;0.00;;;6.90;90.40;;;;;;5056771;28;20116;-64
2023/11/17 03:06:49;;;;;;;0.05;0.00;;;6.80;90.40;;;;;;5055151;28;20036;-64
2023/11/17 03:09:22;;;;;;;0.10;0.00;;;6.80;90.50;;;;;;5056247;28;20032;-64
2023/11/17 03:11:52;;;;;;;0.00;0.00;;;6.80;90.50;;;;;;5055439;28;20045;-64
2023/11/17 03:14:18;;;;;;;0.00;0.00;;;6.80;90.50;;;;;;5055806;28;20040;-64
2023/11/17 03:16:50;;;;;;;0.30;0.10;;;6.70;90.50;;;;;;5055447;28;20036;-64
2023/11/17 03:19:16;;;;;;;0.10;0.00;;;6.70;90.50;;;;;;5055377;28;20080;-64
2023/11/17 03:21:42;;;;;;;0.00;0.00;;;6.70;90.60;;;;;;5055391;28;20508;-64
2023/11/17 03:24:25;;;;;;;0.00;0.00;;;6.70;90.60;;;;;;5055564;28;20025;-64
2023/11/17 03:26:54;;;;;;;0.00;0.00;;;6.60;90.50;;;;;;5054437;28;20029;-64
2023/11/17 03:29:21;;;;;;;0.10;0.00;;;6.60;90.50;;;;;;5054567;28;20415;-64
2023/11/17 03:31:52;;;;;;;0.00;0.00;;;6.70;90.60;;;;;;5052203;28;20407;-65
2023/11/17 03:34:29;;;;;;;0.15;0.00;;;6.60;90.60;;;;;;5054143;28;20476;-64
2023/11/17 03:36:57;;;;;;;0.52;0.00;;;6.60;90.60;;;;;;5054168;28;20060;-64
2023/11/17 03:39:28;;;;;;;0.10;0.03;;;6.60;90.60;;;;;;5054144;28;20115;-64
2023/11/17 03:41:55;;;;;;;0.00;0.00;;;6.70;90.60;;;;;;5054288;28;20039;-64
2023/11/17 03:44:24;;;;;;;0.00;0.00;;;6.70;90.60;;;;;;5054390;28;20035;-64
2023/11/17 03:46:54;;;;;;;0.10;0.10;;;6.60;90.60;;;;;;5053500;28;20037;-64
2023/11/17 03:49:20;;;;;;;0.32;0.00;;;6.60;90.60;;;;;;5054486;28;20471;-64
2023/11/17 03:51:46;;;;;;;0.00;0.00;;;6.60;90.60;;;;;;5054251;28;20064;-64
2023/11/17 03:54:12;;;;;;;0.20;0.00;;;6.60;90.60;;;;;;5053157;28;20037;-64
2023/11/17 03:56:38;;;;;;;0.00;0.00;;;6.60;90.60;;;;;;5050623;28;20087;-65
2023/11/17 03:59:04;;;;;;;0.00;0.00;;;6.60;90.70;;;;;;5054774;28;20032;-65
2023/11/17 04:01:31;;;;;;;0.00;0.00;;;6.60;90.70;;;;;;5053162;28;20542;-65
2023/11/17 04:03:57;;;;;;;0.03;0.03;;;6.70;90.70;;;;;;5054095;28;20033;-64
2023/11/17 04:06:22;;;;;;;0.10;0.08;;;6.60;90.60;;;;;;5055629;28;20529;-64
2023/11/17 04:08:48;;;;;;;0.00;0.00;;;6.60;90.60;;;;;;5054164;28;20752;-65
2023/11/17 04:11:15;;;;;;;0.00;0.00;;;6.60;90.50;;;;;;5051347;28;20029;-64
2023/11/17 04:13:44;;;;;;;0.00;0.00;;;6.60;90.50;;;;;;5053602;28;20039;-64
2023/11/17 04:16:10;;;;;;;0.00;0.00;;;6.60;90.50;;;;;;5052856;28;20116;-65
2023/11/17 04:18:39;;;;;;;0.00;0.00;;;6.60;90.50;;;;;;5054284;28;20471;-64
2023/11/17 04:21:05;;;;;;;0.00;0.00;;;6.50;90.50;;;;;;5055267;28;20447;-64
2023/11/17 04:23:31;;;;;;;0.00;0.00;;;6.50;90.50;;;;;;5055171;28;20033;-64
2023/11/17 04:25:57;;;;;;;0.00;0.00;;;6.50;90.50;;;;;;5052442;28;20504;-63
2023/11/17 04:28:23;;;;;;;0.08;0.00;;;6.50;90.60;;;;;;5053141;28;20035;-64
2023/11/17 04:30:49;;;;;;;0.00;0.00;;;6.50;90.70;;;;;;5053403;28;20554;-64
2023/11/17 04:33:14;;;;;;;0.00;0.00;;;6.50;90.70;;;;;;5054109;28;20041;-64
2023/11/17 04:35:40;;;;;;;0.00;0.00;;;6.50;90.70;;;;;;5053421;28;20031;-64
2023/11/17 04:38:05;;;;;;;0.00;0.00;;;6.50;90.70;;;;;;5055136;28;20036;-64
2023/11/17 04:40:34;;;;;;;1.35;0.00;;;6.50;90.80;;;;;;5054495;28;20036;-64
2023/11/17 04:43:00;;;;;;;0.00;0.00;;;6.50;90.70;;;;;;5054195;28;20508;-64
2023/11/17 04:45:26;;;;;;;0.00;0.00;;;6.50;90.70;;;;;;5052408;28;20049;-64
2023/11/17 04:47:52;;;;;;;0.10;0.10;;;6.50;90.70;;;;;;5053023;28;20037;-64
2023/11/17 04:50:18;;;;;;;0.10;0.10;;;6.50;90.70;;;;;;5051859;28;20055;-64
2023/11/17 04:52:43;;;;;;;0.10;0.00;;;6.50;90.70;;;;;;5053316;28;20039;-64
2023/11/17 04:55:13;;;;;;;0.00;0.00;;;6.50;90.70;;;;;;5052430;28;20183;-64
2023/11/17 04:57:39;;;;;;;0.00;0.00;;;6.50;90.70;;;;;;5057856;28;20139;-64
2023/11/17 05:00:13;;;;;;;0.10;0.10;;;6.50;90.70;;;;;;5055577;28;20370;-64
2023/11/17 05:02:41;;;;;;;0.17;0.17;;;6.50;90.80;;;;;;5055232;28;20049;-65
2023/11/17 05:05:10;;;;;;;0.45;0.40;;;6.50;90.80;;;;;;5056555;28;20271;-64
2023/11/17 05:07:40;;;;;;;0.80;0.13;;;6.50;90.90;;;;;;5057380;28;20036;-64
2023/11/17 05:10:07;;;;;;;0.30;0.30;;;6.50;90.90;;;;;;5057463;28;20036;-64
2023/11/17 05:12:33;;;;;;;2.65;1.77;;;6.50;91.30;;;;;;5053891;28;20547;-64
2023/11/17 05:14:58;;;;;;;2.17;1.52;;;6.50;90.80;;;;;;5056826;28;20044;-64
2023/11/17 05:17:28;;;;;;;2.42;1.90;;;6.60;90.90;;;;;;5056763;28;20043;-64
2023/11/17 05:19:53;;;;;;;6.22;4.00;;;6.50;90.80;;;;;;5057779;28;20189;-64
2023/11/17 05:22:19;;;;;;;1.88;1.60;;;6.60;90.80;;;;;;5056324;28;20587;-64
2023/11/17 05:24:44;;;;;;;1.10;1.00;;;6.60;90.80;;;;;;5056932;28;20033;-64
2023/11/17 05:27:10;;;;;;;0.80;0.75;;;6.60;90.70;;;;;;5056902;28;20119;-64
2023/11/17 05:29:36;;;;;;;0.88;0.88;;;6.60;90.70;;;;;;5056967;28;20032;-64
2023/11/17 05:32:03;;;;;;;2.13;1.63;;;6.60;90.70;;;;;;5056512;28;20033;-64
2023/11/17 05:34:29;;;;;;;1.75;0.90;;;6.60;90.70;;;;;;5055771;28;20057;-65
2023/11/17 05:36:54;;;;;;;1.05;0.95;;;6.60;90.70;;;;;;5058057;28;20566;-64
2023/11/17 05:39:20;;;;;;;0.55;0.55;;;6.60;90.70;;;;;;5056423;28;20070;-64
2023/11/17 05:41:46;;;;;;;0.63;0.63;;;6.60;90.70;;;;;;5057231;28;20033;-64
2023/11/17 05:44:13;;;;;;;1.38;0.52;;;6.70;90.80;;;;;;5058016;28;20067;-64
2023/11/17 05:46:38;;;;;;;0.70;0.38;;;6.70;90.80;;;;;;5055936;28;20039;-64
2023/11/17 05:49:04;;;;;;;1.75;0.43;;;6.70;90.80;;;;;;5056291;28;20033;-64
2023/11/17 05:51:30;;;;;;;1.02;0.65;;;6.70;90.80;;;;;;5054848;28;20347;-64
2023/11/17 05:53:56;;;;;;;2.03;0.40;;;6.80;90.80;;;;;;5056276;28;20068;-64
2023/11/17 05:56:22;;;;;;;0.43;0.43;;;6.80;90.70;;;;;;5053062;28;20033;-64
2023/11/17 05:58:49;;;;;;;1.10;0.30;;;6.80;90.60;;;;;;5055964;28;20037;-64
2023/11/17 06:01:14;;;;;;;0.28;0.28;;;6.80;90.50;;;;;;5055923;28;20470;-64
2023/11/17 06:03:40;;;;;;;0.10;0.10;;;6.80;90.40;;;;;;5055709;28;20039;-64
2023/11/17 06:06:05;;;;;;;0.10;0.10;;;6.80;90.40;;;;;;5056852;28;20527;-64
2023/11/17 06:08:31;;;;;;;0.35;0.20;;;6.70;90.50;;;;;;5056111;28;20515;-64
2023/11/17 06:10:58;;;;;;;0.20;0.20;;;6.80;90.60;;;;;;5053495;28;20503;-64
2023/11/17 06:13:24;;;;;;;0.10;0.10;;;6.70;90.50;;;;;;5054788;28;20890;-64
2023/11/17 06:15:49;;;;;;;0.20;0.20;;;6.70;90.60;;;;;;5055842;28;20190;-64
2023/11/17 06:18:16;;;;;;;0.30;0.10;;;6.80;90.60;;;;;;5055969;28;20123;-64
2023/11/17 06:20:42;;;;;;;0.20;0.20;;;6.80;90.70;;;;;;5056740;28;20067;-65
2023/11/17 06:23:10;;;;;;;0.70;0.30;;;6.80;90.60;;;;;;5054495;28;20028;-64
2023/11/17 06:25:36;;;;;;;0.30;0.30;;;6.80;90.60;;;;;;5055552;28;20505;-64
2023/11/17 06:28:03;;;;;;;0.45;0.40;;;6.80;90.50;;;;;;5056234;28;20048;-64
2023/11/17 06:30:30;;;;;;;0.30;0.30;;;6.80;90.40;;;;;;5054592;28;20039;-64
2023/11/17 06:32:55;;;;;;;0.28;0.28;;;6.80;90.40;;;;;;5057108;28;20104;-64
2023/11/17 06:35:21;;;;;;;0.20;0.20;;;6.80;90.50;;;;;;5057105;28;20628;-64
2023/11/17 06:37:46;;;;;;;0.47;0.30;;;6.90;90.50;;;;;;5055880;28;20044;-64
2023/11/17 06:40:12;;;;;;;0.20;0.20;;;6.90;90.40;;;;;;5054322;28;20687;-64
2023/11/17 06:42:40;;;;;;;0.10;0.10;;;6.80;90.40;;;;;;5055303;28;20033;-64
2023/11/17 06:45:06;;;;;;;0.57;0.20;;;6.90;90.40;;;;;;5055062;28;20277;-64
2023/11/17 06:47:32;;;;;;;0.20;0.20;;;6.90;90.40;;;;;;5056117;28;20032;-64
2023/11/17 06:49:58;;;;;;;0.43;0.22;;;6.90;90.30;;;;;;5056293;28;20029;-64
2023/11/17 06:52:24;;;;;;;1.27;0.10;;;6.90;90.30;;;;;;5055865;28;20571;-64
2023/11/17 06:54:49;;;;;;;0.10;0.10;;;6.90;90.20;;;;;;5057025;28;20269;-64
2023/11/17 06:57:15;;;;;;;0.20;0.20;;;6.90;90.20;;;;;;5054298;28;20504;-65
2023/11/17 06:59:41;;;;;;;0.20;0.20;;;6.90;90.10;;;;;;5056247;28;20047;-64
2023/11/17 07:02:07;;;;;;;0.10;0.10;;;6.90;90.10;;;;;;5056804;28;20033;-64
2023/11/17 07:04:33;;;;;;;0.10;0.10;;;6.90;90.10;;;;;;5044016;28;20148;-64
2023/11/17 07:07:00;;;;;;;0.20;0.20;;;6.90;90.20;;;;;;5044819;28;20104;-64
2023/11/17 07:09:30;;;;;;;0.20;0.10;;;6.90;90.20;;;;;;5041830;28;20083;-64
2023/11/17 07:11:59;;;;;;;0.70;0.10;;;6.90;90.10;;;;;;5046651;28;20478;-64
2023/11/17 07:14:25;;;;;;;0.10;0.10;;;6.90;90.10;;;;;;5048153;28;20419;-64
2023/11/17 07:16:52;;;;;;;0.50;0.40;;;6.90;90.20;;;;;;5051550;28;20047;-64
2023/11/17 07:19:20;;;;;;;0.20;0.10;;;6.90;90.20;;;;;;5044337;28;20029;-64
2023/11/17 07:21:52;;;;;;;0.20;0.20;;;6.90;90.20;;;;;;5048978;28;20118;-64
2023/11/17 07:24:18;;;;;;;0.20;0.20;;;6.90;90.20;;;;;;5050962;28;20025;-64
2023/11/17 07:26:45;;;;;;;0.25;0.20;;;7.00;90.20;;;;;;5050942;28;20041;-64
2023/11/17 07:29:13;;;;;;;0.32;0.20;;;6.90;90.10;;;;;;5040406;28;20033;-64
2023/11/17 07:31:45;;;;;;;0.60;0.30;;;7.00;90.20;;;;;;5049734;28;20120;-64
2023/11/17 07:34:18;;;;;;;0.65;0.40;;;7.00;90.20;;;;;;5050356;28;20158;-64
2023/11/17 07:36:46;;;;;;;0.40;0.25;;;7.00;90.20;;;;;;5048311;28;20044;-63
2023/11/17 07:39:18;;;;;;;0.40;0.30;;;7.00;90.10;;;;;;5047105;28;20020;-64
2023/11/17 07:41:44;;;;;;;0.30;0.20;;;7.00;90.10;;;;;;5050848;28;20052;-64
2023/11/17 07:44:11;;;;;;;0.30;0.17;;;7.00;90.10;;;;;;5050212;28;20033;-64
2023/11/17 07:46:37;;;;;;;0.10;0.10;;;7.00;90.10;;;;;;5044034;28;20029;-64
2023/11/17 07:49:05;;;;;;;0.10;0.10;;;7.00;90.10;;;;;;5048854;28;20033;-64
2023/11/17 07:51:34;;;;;;;1.35;0.30;;;7.00;90.10;;;;;;5046814;28;20033;-64
2023/11/17 07:54:00;;;;;;;0.10;0.10;;;7.00;90.00;;;;;;5047749;28;20676;-64
2023/11/17 07:56:27;;;;;;;1.38;0.10;;;7.00;90.00;;;;;;5044006;28;20086;-65
2023/11/17 07:58:53;;;;;;;0.20;0.10;;;7.10;90.00;;;;;;5048627;28;20565;-65
2023/11/17 08:01:19;;;;;;;0.20;0.10;;;7.10;90.10;;;;;;5045031;28;20095;-64
2023/11/17 08:03:45;;;;;;;0.20;0.20;;;7.10;90.00;;;;;;5047683;28;20051;-64
2023/11/17 08:06:11;;;;;;;0.77;0.20;;;7.10;90.10;;;;;;5049719;28;20040;-64
2023/11/17 08:08:41;;;;;;;1.85;0.32;;;7.10;90.20;;;;;;5049551;28;20036;-64
2023/11/17 08:17:50;;;;;;;0.20;0.20;;;7.20;90.20;;;;;;5043475;28;20174;-64
2023/11/17 08:20:16;;;;;;;0.40;0.10;;;7.20;90.10;;;;;;5048524;28;20492;-64
2023/11/17 08:22:44;;;;;;;0.20;0.20;;;7.20;90.00;;;;;;5048188;28;20090;-64
2023/11/17 08:25:11;;;;;;;0.35;0.25;;;7.20;90.00;;;;;;5044792;28;20076;-64
2023/11/17 08:27:36;;;;;;;2.38;0.30;;;7.20;90.00;;;;;;5039256;28;20124;-64
2023/11/17 08:30:07;;;;;;;1.80;0.95;;;7.20;90.00;;;;;;5047028;28;20116;-64
2023/11/17 08:32:33;;;;;;;1.50;1.00;;;7.30;90.10;;;;;;5046755;28;20194;-64
2023/11/17 08:34:58;;;;;;;2.47;1.60;;;7.20;90.00;;;;;;5046064;28;20036;-64
2023/11/17 08:37:24;;;;;;;3.03;1.70;;;7.20;90.00;;;;;;5047911;28;20117;-63
2023/11/17 08:39:50;;;;;;;0.70;0.60;;;7.30;89.90;;;;;;5038100;28;20132;-64
2023/11/17 08:42:15;;;;;;;1.30;0.95;;;7.30;90.00;;;;;;5050877;28;20086;-63
2023/11/17 08:44:41;;;;;;;0.82;0.60;;;7.30;90.00;;;;;;5048011;28;20041;-64
2023/11/17 08:47:07;;;;;;;1.85;0.60;;;7.30;90.00;;;;;;5047705;28;20031;-64
2023/11/17 08:49:36;;;;;;;0.80;0.80;;;7.30;89.70;;;;;;5053312;28;20037;-64
2023/11/17 08:52:07;;;;;;;0.60;0.60;;;7.30;89.70;;;;;;5054726;28;20455;-64
2023/11/17 08:54:34;;;;;;;0.85;0.80;;;7.30;89.80;;;;;;5050402;28;20599;-64
2023/11/17 08:57:00;;;;;;;1.58;0.60;;;7.40;90.00;;;;;;5052092;28;20404;-64
2023/11/17 08:59:25;;;;;;;0.40;0.30;;;7.40;90.00;;;;;;5055761;28;20508;-63
2023/11/17 09:01:53;;;;;;;0.40;0.30;;;7.40;90.00;;;;;;5053800;28;20095;-64
2023/11/17 09:04:19;;;;;;;0.57;0.52;;;7.40;89.70;;;;;;5057228;28;20169;-63
2023/11/17 09:06:44;;;;;;;0.50;0.50;;;7.50;89.90;;;;;;5057559;28;20033;-64
2023/11/17 09:09:12;;;;;;;0.63;0.38;;;7.50;89.90;;;;;;5058827;28;20041;-63
2023/11/17 09:11:38;;;;;;;0.30;0.30;;;7.50;89.90;;;;;;5054198;28;20029;-64
2023/11/17 09:14:06;;;;;;;0.80;0.20;;;7.50;89.90;;;;;;5057521;28;20032;-63
2023/11/17 09:16:34;;;;;;;0.15;0.15;;;7.60;90.00;;;;;;5057409;28;20029;-63
2023/11/17 09:19:01;;;;;;;0.22;0.20;;;7.60;90.00;;;;;;5055973;28;20065;-64
2023/11/17 09:21:31;;;;;;;0.47;0.20;;;7.60;89.80;;;;;;5056251;28;20120;-63
2023/11/17 09:23:56;;;;;;;0.20;0.20;;;7.70;89.70;;;;;;5057111;28;20147;-64
2023/11/17 09:26:22;;;;;;;1.65;0.20;;;7.70;89.40;;;;;;5056305;28;20081;-63
2023/11/17 09:28:48;;;;;;;0.45;0.40;;;7.70;89.20;;;;;;5051190;28;20029;-64
2023/11/17 09:31:13;;;;;;;0.45;0.30;;;7.70;89.20;;;;;;5053987;28;20497;-64
2023/11/17 09:33:39;;;;;;;0.30;0.30;;;7.70;89.20;;;;;;5056034;28;20251;-63
2023/11/17 09:36:06;;;;;;;0.30;0.30;;;7.70;89.00;;;;;;5052492;28;20025;-64
2023/11/17 09:38:32;;;;;;;0.55;0.40;;;7.80;89.20;;;;;;5056133;28;20028;-64
2023/11/17 09:40:58;;;;;;;0.60;0.50;;;7.80;89.30;;;;;;5056303;28;20021;-63
2023/11/17 09:43:26;;;;;;;0.40;0.38;;;7.80;89.30;;;;;;5058204;28;20037;-64
2023/11/17 09:45:53;;;;;;;0.30;0.30;;;7.80;89.00;;;;;;5058720;28;20032;-64
2023/11/17 09:48:20;;;;;;;0.30;0.30;;;7.80;88.90;;;;;;5058051;28;20095;-63
2023/11/17 09:50:50;;;;;;;0.20;0.20;;;7.80;88.80;;;;;;5057654;28;20039;-63
2023/11/17 09:53:17;;;;;;;0.28;0.28;;;7.80;88.80;;;;;;5057469;28;20025;-63
2023/11/17 09:55:43;;;;;;;0.50;0.30;;;7.80;88.60;;;;;;5057801;28;20085;-64
2023/11/17 09:58:11;;;;;;;0.20;0.20;;;7.90;88.80;;;;;;5058365;28;20407;-64
2023/11/17 10:00:37;;;;;;;0.98;0.50;;;7.90;88.90;;;;;;5057606;28;20099;-64
2023/11/17 10:03:04;;;;;;;1.70;0.50;;;7.90;88.90;;;;;;5058889;28;20325;-64
2023/11/17 10:05:31;;;;;;;0.63;0.40;;;7.90;89.00;;;;;;5057662;28;20635;-63
2023/11/17 10:08:04;;;;;;;0.40;0.40;;;7.90;88.80;;;;;;5057870;28;20044;-64
2023/11/17 10:10:37;;;;;;;0.65;0.40;;;7.90;89.00;;;;;;5054690;28;20087;-64
2023/11/17 10:13:10;;;;;;;0.80;0.60;;;7.90;89.10;;;;;;5058523;28;20037;-64
2023/11/17 10:15:39;;;;;;;1.65;1.00;;;8.00;89.20;;;;;;5058190;28;20040;-63
2023/11/17 10:18:07;;;;;;;1.00;0.65;;;8.00;89.00;;;;;;5058238;28;20036;-63
2023/11/17 10:20:37;;;;;;;1.15;0.50;;;8.10;89.20;;;;;;5057835;28;21555;-64
2023/11/17 10:23:04;;;;;;;1.75;1.25;;;8.10;89.10;;;;;;5058048;28;20135;-63
2023/11/17 10:25:30;;;;;;;2.00;1.08;;;8.10;89.00;;;;;;5055328;28;20091;-64
2023/11/17 10:27:58;;;;;;;1.20;1.00;;;8.20;88.80;;;;;;5057697;28;20463;-63
2023/11/17 10:30:30;;;;;;;1.23;0.90;;;8.20;88.10;;;;;;5057595;28;20036;-64
2023/11/17 10:32:58;;;;;;;1.92;1.10;;;8.20;88.30;;;;;;5057334;28;20040;-63
2023/11/17 10:35:24;;;;;;;1.33;1.00;;;8.20;88.40;;;;;;5058055;28;20483;-63
2023/11/17 10:37:56;;;;;;;0.98;0.57;;;8.20;88.50;;;;;;5058040;28;20124;-64
2023/11/17 10:40:25;;;;;;;0.43;0.43;;;8.20;88.00;;;;;;5057677;28;20128;-63
2023/11/17 10:43:08;;;;;;;0.43;0.43;;;8.20;88.10;;;;;;5057056;28;20075;-64
2023/11/17 10:45:41;;;;;;;0.57;0.52;;;8.20;87.60;;;;;;5057066;28;20033;-64
2023/11/17 10:48:08;;;;;;;0.80;0.75;;;8.20;87.80;;;;;;5058062;28;20036;-63
2023/11/17 10:50:37;;;;;;;0.70;0.70;;;8.20;88.20;;;;;;5056224;28;20118;-64
2023/11/17 10:53:24;;;;;;;0.85;0.85;;;8.20;88.80;;;;;;5057434;28;20048;-64
2023/11/17 10:55:53;;;;;;;0.60;0.60;;;8.20;89.10;;;;;;5056955;28;20067;-64
2023/11/17 10:58:19;;;;;;;0.55;0.55;;;8.20;89.10;;;;;;5056832;28;20041;-64
2023/11/17 11:00:47;;;;;;;1.33;0.57;;;8.30;89.10;;;;;;5056042;28;20033;-64
2023/11/17 11:03:15;;;;;;;0.93;0.80;;;8.20;89.10;;;;;;5057125;28;20037;-64
2023/11/17 11:05:42;;;;;;;0.77;0.70;;;8.30;88.80;;;;;;5056390;28;20500;-64
2023/11/17 11:08:13;;;;;;;0.75;0.75;;;8.30;88.80;;;;;;5057780;28;20169;-64
2023/11/17 11:10:49;;;;;;;0.90;0.80;;;8.30;89.00;;;;;;5053894;28;20050;-64
2023/11/17 11:13:16;;;;;;;0.77;0.77;;;8.30;89.20;;;;;;5056966;28;20025;-64
2023/11/17 11:15:42;;;;;;;0.50;0.50;;;8.30;89.20;;;;;;5056969;28;20049;-64
2023/11/17 11:18:15;;;;;;;0.63;0.52;;;8.30;88.90;;;;;;5057349;28;20024;-64
2023/11/17 11:20:42;;;;;;;1.75;1.20;;;8.30;88.80;;;;;;5055582;28;20515;-64
2023/11/17 11:23:09;;;;;;;0.95;0.60;;;8.30;88.80;;;;;;5055971;28;20048;-64
2023/11/17 11:25:34;;;;;;;0.73;0.60;;;8.30;88.80;;;;;;5054427;28;20531;-64
2023/11/17 11:28:00;;;;;;;1.75;1.40;;;8.30;88.50;;;;;;5056994;28;20041;-64
2023/11/17 11:30:27;;;;;;;1.75;1.25;;;8.30;88.60;;;;;;5056211;28;20036;-64
2023/11/17 11:32:52;;;;;;;1.73;1.38;;;8.20;88.70;;;;;;5056408;28;20040;-64
2023/11/17 11:35:18;;;;;;;1.38;0.60;;;8.20;89.00;;;;;;5056032;28;20427;-64
2023/11/17 11:37:44;;;;;;;0.47;0.20;;;8.20;89.00;;;;;;5056461;28;20040;-64
2023/11/17 11:40:12;;;;;;;1.85;1.20;;;8.30;88.80;;;;;;5056580;28;20032;-64
2023/11/17 11:42:42;;;;;;;0.50;0.50;;;8.30;88.70;;;;;;5056194;28;20040;-63
2023/11/17 11:45:16;;;;;;;1.17;0.88;;;8.30;88.60;;;;;;5056656;28;20404;-64
2023/11/17 11:47:45;;;;;;;0.70;0.60;;;8.30;88.60;;;;;;5054841;28;20044;-64
2023/11/17 11:50:14;;;;;;;1.48;0.60;;;8.30;88.50;;;;;;5055976;28;20057;-64
2023/11/17 11:52:47;;;;;;;0.55;0.40;;;8.20;88.60;;;;;;5053056;28;20066;-63
2023/11/17 11:55:16;;;;;;;0.93;0.63;;;8.30;88.80;;;;;;5056741;28;20083;-64
2023/11/17 11:57:57;;;;;;;0.60;0.55;;;8.30;88.80;;;;;;5056640;28;20064;-64
2023/11/17 12:00:24;;;;;;;0.70;0.52;;;8.30;88.80;;;;;;5056336;28;20033;-64
2023/11/17 12:03:02;;;;;;;0.98;0.60;;;8.30;88.90;;;;;;5056404;28;20056;-64
2023/11/17 12:05:33;;;;;;;0.90;0.60;;;8.30;89.00;;;;;;5062470;28;20710;-64
2023/11/17 12:08:03;;;;;;;1.00;0.90;;;8.30;89.20;;;;;;5064066;28;20036;-64
2023/11/17 12:10:44;;;;;;;1.20;1.10;;;8.30;89.00;;;;;;5059560;28;20029;-64
2023/11/17 12:13:56;;;;;;;1.60;1.10;;;8.30;89.40;;;;;;5063017;28;20314;-64
2023/11/17 12:16:32;;;;;;;2.10;1.48;;;8.30;89.20;;;;;;5060471;28;20539;-64
2023/11/17 12:18:58;;;;;;;0.93;0.82;;;8.30;89.40;;;;;;5063935;28;20504;-64
2023/11/17 12:21:25;;;;;;;0.60;0.50;;;8.30;89.60;;;;;;5061464;28;20033;-64
2023/11/17 12:23:54;;;;;;;0.70;0.57;;;8.30;90.10;;;;;;5063076;28;20040;-64
2023/11/17 12:26:22;;;;;;;0.88;0.60;;;8.40;89.00;;;;;;5060130;28;20040;-64
2023/11/17 12:28:48;;;;;;;0.60;0.60;;;8.40;88.90;;;;;;5062262;28;20051;-64
2023/11/17 12:31:15;;;;;;;0.30;0.30;;;8.40;89.10;;;;;;5062804;28;20032;-64
2023/11/17 12:33:48;;;;;;;0.40;0.40;;;8.40;89.20;;;;;;5062814;28;20404;-64
2023/11/17 12:36:16;;;;;;;0.50;0.50;;;8.40;88.70;;;;;;5062608;28;20522;-64
2023/11/17 12:38:44;;;;;;;0.77;0.73;;;8.40;88.80;;;;;;5062209;28;20454;-64
2023/11/17 12:41:13;;;;;;;0.95;0.85;;;8.40;88.80;;;;;;5061041;28;20090;-65
2023/11/17 12:43:40;;;;;;;1.48;0.60;;;8.40;88.50;;;;;;5054554;28;20098;-64
2023/11/17 12:46:09;;;;;;;0.73;0.50;;;8.40;88.50;;;;;;5038202;28;20102;-64
2023/11/17 12:48:38;;;;;;;0.88;0.55;;;8.40;88.50;;;;;;5050485;28;20036;-65
2023/11/17 12:51:05;;;;;;;0.57;0.57;;;8.40;88.60;;;;;;5047174;28;20033;-64
2023/11/17 12:53:45;;;;;;;0.73;0.47;;;8.40;88.60;;;;;;5050346;28;20087;-64
2023/11/17 12:56:12;;;;;;;0.60;0.50;;;8.40;88.80;;;;;;5057139;28;20452;-65
2023/11/17 12:58:39;;;;;;;0.47;0.40;;;8.40;88.80;;;;;;5050944;28;20032;-65
2023/11/17 13:01:16;;;;;;;0.55;0.35;;;8.40;88.80;;;;;;5054206;28;20469;-65
2023/11/17 13:03:46;;;;;;;0.60;0.40;;;8.40;88.70;;;;;;5059414;28;20068;-64
2023/11/17 13:06:13;;;;;;;0.70;0.60;;;8.50;88.60;;;;;;5046152;28;20071;-65
2023/11/17 13:08:39;;;;;;;0.93;0.60;;;8.50;88.30;;;;;;5052467;28;20041;-66